sensor_id;sensor_type;location;lat;lon;timestamp;temperature;humidity
63219;DHT22;49320;52.512;13.448;2023-05-07T00:02:00;12.70;77.20
63219;DHT22;49320;52.512;13.448;2023-05-07T00:04:27;12.70;77.10
63219;DHT22;49320;52.512;13.448;2023-05-07T00:06:55;12.60;76.90
63219;DHT22;49320;52.512;13.448;2023-05-07T00:09:22;12.70;76.90
63219;DHT22;49320;52.512;13.448;2023-05-07T00:11:48;12.70;76.70
63219;DHT22;49320;52.512;13.448;2023-05-07T00:14:15;12.70;76.90
63219;DHT22;49320;52.512;13.448;2023-05-07T00:16:42;12.70;76.80
63219;DHT22;49320;52.512;13.448;2023-05-07T00:19:09;12.70;76.50
63219;DHT22;49320;52.512;13.448;2023-05-07T00:21:36;12.70;76.70
63219;DHT22;49320;52.512;13.448;2023-05-07T00:24:03;12.70;76.70
63219;DHT22;49320;52.512;13.448;2023-05-07T00:26:30;12.70;76.60
63219;DHT22;49320;52.512;13.448;2023-05-07T00:28:57;12.70;76.70
63219;DHT22;49320;52.512;13.448;2023-05-07T00:31:23;12.70;76.80
63219;DHT22;49320;52.512;13.448;2023-05-07T00:33:50;12.70;76.80
63219;DHT22;49320;52.512;13.448;2023-05-07T00:36:17;12.70;76.80
63219;DHT22;49320;52.512;13.448;2023-05-07T00:38:44;12.70;76.40
63219;DHT22;49320;52.512;13.448;2023-05-07T00:41:11;12.70;77.00
63219;DHT22;49320;52.512;13.448;2023-05-07T00:43:37;12.70;76.70
63219;DHT22;49320;52.512;13.448;2023-05-07T00:46:04;12.70;76.60
63219;DHT22;49320;52.512;13.448;2023-05-07T00:48:32;12.60;76.40
63219;DHT22;49320;52.512;13.448;2023-05-07T00:50:59;12.70;76.60
63219;DHT22;49320;52.512;13.448;2023-05-07T00:53:26;12.60;76.50
63219;DHT22;49320;52.512;13.448;2023-05-07T00:55:53;12.60;76.60
63219;DHT22;49320;52.512;13.448;2023-05-07T00:58:20;12.70;76.80
63219;DHT22;49320;52.512;13.448;2023-05-07T01:00:47;12.60;76.80
63219;DHT22;49320;52.512;13.448;2023-05-07T01:03:14;12.60;76.90
63219;DHT22;49320;52.512;13.448;2023-05-07T01:05:43;12.60;76.90
63219;DHT22;49320;52.512;13.448;2023-05-07T01:08:13;12.60;77.00
63219;DHT22;49320;52.512;13.448;2023-05-07T01:10:41;12.60;76.90
63219;DHT22;49320;52.512;13.448;2023-05-07T01:13:10;12.60;76.90
63219;DHT22;49320;52.512;13.448;2023-05-07T01:15:38;12.60;76.90
63219;DHT22;49320;52.512;13.448;2023-05-07T01:18:07;12.60;77.00
63219;DHT22;49320;52.512;13.448;2023-05-07T01:20:34;12.60;77.60
63219;DHT22;49320;52.512;13.448;2023-05-07T01:23:01;12.60;77.00
63219;DHT22;49320;52.512;13.448;2023-05-07T01:25:30;12.70;77.10
63219;DHT22;49320;52.512;13.448;2023-05-07T01:27:57;12.60;76.90
63219;DHT22;49320;52.512;13.448;2023-05-07T01:30:26;12.60;77.00
63219;DHT22;49320;52.512;13.448;2023-05-07T01:33:06;12.60;76.90
63219;DHT22;49320;52.512;13.448;2023-05-07T01:35:40;12.70;77.30
63219;DHT22;49320;52.512;13.448;2023-05-07T01:38:10;12.70;77.20
63219;DHT22;49320;52.512;13.448;2023-05-07T01:40:38;12.70;76.70
63219;DHT22;49320;52.512;13.448;2023-05-07T01:43:05;12.70;76.70
63219;DHT22;49320;52.512;13.448;2023-05-07T01:45:34;12.70;76.70
63219;DHT22;49320;52.512;13.448;2023-05-07T01:48:03;12.70;76.20
63219;DHT22;49320;52.512;13.448;2023-05-07T01:50:32;12.70;76.90
63219;DHT22;49320;52.512;13.448;2023-05-07T01:53:01;12.80;77.00
63219;DHT22;49320;52.512;13.448;2023-05-07T01:55:29;12.80;76.80
63219;DHT22;49320;52.512;13.448;2023-05-07T01:57:56;12.80;76.60
63219;DHT22;49320;52.512;13.448;2023-05-07T02:00:23;12.80;76.30
63219;DHT22;49320;52.512;13.448;2023-05-07T02:02:50;12.80;76.20
63219;DHT22;49320;52.512;13.448;2023-05-07T02:05:17;12.80;76.30
63219;DHT22;49320;52.512;13.448;2023-05-07T02:07:43;12.80;76.30
63219;DHT22;49320;52.512;13.448;2023-05-07T02:10:10;12.80;76.20
63219;DHT22;49320;52.512;13.448;2023-05-07T02:12:37;12.80;76.20
63219;DHT22;49320;52.512;13.448;2023-05-07T02:15:04;12.80;75.60
63219;DHT22;49320;52.512;13.448;2023-05-07T02:17:32;12.80;76.10
63219;DHT22;49320;52.512;13.448;2023-05-07T02:19:59;12.80;76.10
63219;DHT22;49320;52.512;13.448;2023-05-07T02:22:26;12.80;76.00
63219;DHT22;49320;52.512;13.448;2023-05-07T02:24:53;12.80;76.00
63219;DHT22;49320;52.512;13.448;2023-05-07T02:27:19;12.80;76.00
63219;DHT22;49320;52.512;13.448;2023-05-07T02:29:46;12.80;76.00
63219;DHT22;49320;52.512;13.448;2023-05-07T02:32:13;12.80;75.90
63219;DHT22;49320;52.512;13.448;2023-05-07T02:34:40;12.80;76.50
63219;DHT22;49320;52.512;13.448;2023-05-07T02:37:07;12.90;75.90
63219;DHT22;49320;52.512;13.448;2023-05-07T02:39:33;12.80;75.70
63219;DHT22;49320;52.512;13.448;2023-05-07T02:42:00;12.80;75.80
63219;DHT22;49320;52.512;13.448;2023-05-07T02:44:28;12.80;75.70
63219;DHT22;49320;52.512;13.448;2023-05-07T02:46:57;12.80;75.60
63219;DHT22;49320;52.512;13.448;2023-05-07T02:49:24;12.70;75.50
63219;DHT22;49320;52.512;13.448;2023-05-07T02:51:51;12.80;75.70
63219;DHT22;49320;52.512;13.448;2023-05-07T02:54:18;12.70;75.80
63219;DHT22;49320;52.512;13.448;2023-05-07T02:56:44;12.70;75.70
63219;DHT22;49320;52.512;13.448;2023-05-07T02:59:11;12.70;75.60
63219;DHT22;49320;52.512;13.448;2023-05-07T03:01:38;12.70;75.60
63219;DHT22;49320;52.512;13.448;2023-05-07T03:04:05;12.70;75.60
63219;DHT22;49320;52.512;13.448;2023-05-07T03:06:32;12.70;75.60
63219;DHT22;49320;52.512;13.448;2023-05-07T03:08:59;12.70;75.50
63219;DHT22;49320;52.512;13.448;2023-05-07T03:11:25;12.70;75.50
63219;DHT22;49320;52.512;13.448;2023-05-07T03:13:52;12.70;75.60
63219;DHT22;49320;52.512;13.448;2023-05-07T03:16:19;12.70;75.50
63219;DHT22;49320;52.512;13.448;2023-05-07T03:18:46;12.70;75.60
63219;DHT22;49320;52.512;13.448;2023-05-07T03:21:13;12.70;75.60
63219;DHT22;49320;52.512;13.448;2023-05-07T03:23:40;12.70;75.50
63219;DHT22;49320;52.512;13.448;2023-05-07T03:26:06;12.70;75.50
63219;DHT22;49320;52.512;13.448;2023-05-07T03:28:33;12.70;75.40
63219;DHT22;49320;52.512;13.448;2023-05-07T03:31:00;12.80;74.80
63219;DHT22;49320;52.512;13.448;2023-05-07T03:33:27;12.70;75.30
63219;DHT22;49320;52.512;13.448;2023-05-07T03:35:54;12.70;75.30
63219;DHT22;49320;52.512;13.448;2023-05-07T03:38:21;12.70;75.40
63219;DHT22;49320;52.512;13.448;2023-05-07T03:40:47;12.60;75.10
63219;DHT22;49320;52.512;13.448;2023-05-07T03:43:14;12.60;75.30
63219;DHT22;49320;52.512;13.448;2023-05-07T03:45:42;12.60;75.20
63219;DHT22;49320;52.512;13.448;2023-05-07T03:48:08;12.60;75.20
63219;DHT22;49320;52.512;13.448;2023-05-07T03:50:35;12.50;74.80
63219;DHT22;49320;52.512;13.448;2023-05-07T03:53:02;12.50;74.70
63219;DHT22;49320;52.512;13.448;2023-05-07T03:57:56;12.50;75.00
63219;DHT22;49320;52.512;13.448;2023-05-07T04:00:23;12.50;75.60
63219;DHT22;49320;52.512;13.448;2023-05-07T04:02:49;12.50;75.60
63219;DHT22;49320;52.512;13.448;2023-05-07T04:05:17;12.50;75.60
63219;DHT22;49320;52.512;13.448;2023-05-07T04:07:43;12.50;75.70
63219;DHT22;49320;52.512;13.448;2023-05-07T04:10:10;12.40;75.60
63219;DHT22;49320;52.512;13.448;2023-05-07T04:12:38;12.40;75.80
63219;DHT22;49320;52.512;13.448;2023-05-07T04:15:05;12.40;75.30
63219;DHT22;49320;52.512;13.448;2023-05-07T04:17:32;12.40;75.80
63219;DHT22;49320;52.512;13.448;2023-05-07T04:19:59;12.40;76.00
63219;DHT22;49320;52.512;13.448;2023-05-07T04:22:26;12.50;76.00
63219;DHT22;49320;52.512;13.448;2023-05-07T04:24:53;12.40;75.90
63219;DHT22;49320;52.512;13.448;2023-05-07T04:27:19;12.40;75.90
63219;DHT22;49320;52.512;13.448;2023-05-07T04:29:46;12.40;76.00
63219;DHT22;49320;52.512;13.448;2023-05-07T04:32:13;12.50;75.70
63219;DHT22;49320;52.512;13.448;2023-05-07T04:34:41;12.50;76.00
63219;DHT22;49320;52.512;13.448;2023-05-07T04:37:08;12.40;75.90
63219;DHT22;49320;52.512;13.448;2023-05-07T04:39:34;12.50;75.90
63219;DHT22;49320;52.512;13.448;2023-05-07T04:42:01;12.50;75.80
63219;DHT22;49320;52.512;13.448;2023-05-07T04:44:29;12.50;75.70
63219;DHT22;49320;52.512;13.448;2023-05-07T04:46:57;12.50;75.60
63219;DHT22;49320;52.512;13.448;2023-05-07T04:49:24;12.50;75.60
63219;DHT22;49320;52.512;13.448;2023-05-07T04:51:51;12.60;75.60
63219;DHT22;49320;52.512;13.448;2023-05-07T04:54:17;12.50;75.20
63219;DHT22;49320;52.512;13.448;2023-05-07T04:56:44;12.60;75.20
63219;DHT22;49320;52.512;13.448;2023-05-07T04:59:11;12.60;75.20
63219;DHT22;49320;52.512;13.448;2023-05-07T05:01:38;12.60;75.10
63219;DHT22;49320;52.512;13.448;2023-05-07T05:04:05;12.60;74.90
63219;DHT22;49320;52.512;13.448;2023-05-07T05:06:32;12.60;74.80
63219;DHT22;49320;52.512;13.448;2023-05-07T05:08:58;12.70;75.00
63219;DHT22;49320;52.512;13.448;2023-05-07T05:11:25;10.80;73.60
63219;DHT22;49320;52.512;13.448;2023-05-07T05:13:52;12.80;74.60
63219;DHT22;49320;52.512;13.448;2023-05-07T05:16:19;12.90;74.50
63219;DHT22;49320;52.512;13.448;2023-05-07T05:18:46;12.90;74.50
63219;DHT22;49320;52.512;13.448;2023-05-07T05:21:12;13.00;74.50
63219;DHT22;49320;52.512;13.448;2023-05-07T05:26:06;13.10;73.30
63219;DHT22;49320;52.512;13.448;2023-05-07T05:28:33;13.10;73.60
63219;DHT22;49320;52.512;13.448;2023-05-07T05:31:00;13.20;72.90
63219;DHT22;49320;52.512;13.448;2023-05-07T05:33:27;13.10;73.40
63219;DHT22;49320;52.512;13.448;2023-05-07T05:35:54;13.20;73.40
63219;DHT22;49320;52.512;13.448;2023-05-07T05:38:21;13.20;73.50
63219;DHT22;49320;52.512;13.448;2023-05-07T05:40:48;15.10;74.50
63219;DHT22;49320;52.512;13.448;2023-05-07T05:43:14;13.30;73.10
63219;DHT22;49320;52.512;13.448;2023-05-07T05:45:41;13.30;72.70
63219;DHT22;49320;52.512;13.448;2023-05-07T05:48:08;13.30;72.70
63219;DHT22;49320;52.512;13.448;2023-05-07T05:50:35;13.30;72.70
63219;DHT22;49320;52.512;13.448;2023-05-07T05:53:03;13.30;72.70
63219;DHT22;49320;52.512;13.448;2023-05-07T05:55:30;13.40;72.70
63219;DHT22;49320;52.512;13.448;2023-05-07T05:58:03;13.40;72.70
63219;DHT22;49320;52.512;13.448;2023-05-07T06:00:30;13.40;72.40
63219;DHT22;49320;52.512;13.448;2023-05-07T06:02:56;13.40;72.20
63219;DHT22;49320;52.512;13.448;2023-05-07T06:05:23;13.50;72.00
63219;DHT22;49320;52.512;13.448;2023-05-07T06:07:50;13.50;71.80
63219;DHT22;49320;52.512;13.448;2023-05-07T06:10:17;13.50;71.80
63219;DHT22;49320;52.512;13.448;2023-05-07T06:12:44;13.50;71.80
63219;DHT22;49320;52.512;13.448;2023-05-07T06:15:11;13.50;71.80
63219;DHT22;49320;52.512;13.448;2023-05-07T06:17:38;13.50;70.90
63219;DHT22;49320;52.512;13.448;2023-05-07T06:20:05;13.60;71.50
63219;DHT22;49320;52.512;13.448;2023-05-07T06:22:32;13.60;71.60
63219;DHT22;49320;52.512;13.448;2023-05-07T06:24:59;13.60;71.50
63219;DHT22;49320;52.512;13.448;2023-05-07T06:27:26;13.70;71.50
63219;DHT22;49320;52.512;13.448;2023-05-07T06:29:54;13.70;71.20
63219;DHT22;49320;52.512;13.448;2023-05-07T06:32:21;13.70;71.10
63219;DHT22;49320;52.512;13.448;2023-05-07T06:34:48;13.70;71.00
63219;DHT22;49320;52.512;13.448;2023-05-07T06:37:14;13.70;70.90
63219;DHT22;49320;52.512;13.448;2023-05-07T06:39:41;13.80;71.00
63219;DHT22;49320;52.512;13.448;2023-05-07T06:42:08;13.80;70.90
63219;DHT22;49320;52.512;13.448;2023-05-07T06:44:35;13.80;70.70
63219;DHT22;49320;52.512;13.448;2023-05-07T06:47:01;13.90;70.70
63219;DHT22;49320;52.512;13.448;2023-05-07T06:49:28;13.90;70.50
63219;DHT22;49320;52.512;13.448;2023-05-07T06:54:22;14.00;69.60
63219;DHT22;49320;52.512;13.448;2023-05-07T06:56:50;14.10;70.30
63219;DHT22;49320;52.512;13.448;2023-05-07T06:59:16;14.10;70.30
63219;DHT22;49320;52.512;13.448;2023-05-07T07:01:43;14.20;70.10
63219;DHT22;49320;52.512;13.448;2023-05-07T07:04:10;14.40;70.00
63219;DHT22;49320;52.512;13.448;2023-05-07T07:06:37;14.30;69.60
63219;DHT22;49320;52.512;13.448;2023-05-07T07:09:05;14.40;69.30
63219;DHT22;49320;52.512;13.448;2023-05-07T07:11:31;14.40;69.00
63219;DHT22;49320;52.512;13.448;2023-05-07T07:13:58;14.50;69.00
63219;DHT22;49320;52.512;13.448;2023-05-07T07:16:25;14.60;68.80
63219;DHT22;49320;52.512;13.448;2023-05-07T07:18:52;14.60;68.20
63219;DHT22;49320;52.512;13.448;2023-05-07T07:21:19;14.50;68.20
63219;DHT22;49320;52.512;13.448;2023-05-07T07:23:46;14.60;67.60
63219;DHT22;49320;52.512;13.448;2023-05-07T07:26:13;14.70;68.40
63219;DHT22;49320;52.512;13.448;2023-05-07T07:28:44;14.70;68.10
63219;DHT22;49320;52.512;13.448;2023-05-07T07:31:12;14.80;67.80
63219;DHT22;49320;52.512;13.448;2023-05-07T07:33:39;14.80;67.30
63219;DHT22;49320;52.512;13.448;2023-05-07T07:36:06;14.90;67.30
63219;DHT22;49320;52.512;13.448;2023-05-07T07:38:34;14.90;67.20
63219;DHT22;49320;52.512;13.448;2023-05-07T07:41:01;15.00;67.20
63219;DHT22;49320;52.512;13.448;2023-05-07T07:43:28;15.00;66.80
63219;DHT22;49320;52.512;13.448;2023-05-07T07:45:55;14.90;66.50
63219;DHT22;49320;52.512;13.448;2023-05-07T07:48:21;15.00;66.30
63219;DHT22;49320;52.512;13.448;2023-05-07T07:50:49;15.10;66.20
63219;DHT22;49320;52.512;13.448;2023-05-07T07:53:18;15.80;66.30
63219;DHT22;49320;52.512;13.448;2023-05-07T07:55:45;15.10;65.70
63219;DHT22;49320;52.512;13.448;2023-05-07T07:58:12;15.10;65.50
63219;DHT22;49320;52.512;13.448;2023-05-07T08:00:39;15.10;65.70
63219;DHT22;49320;52.512;13.448;2023-05-07T08:03:06;15.00;65.90
63219;DHT22;49320;52.512;13.448;2023-05-07T08:05:36;15.10;65.40
63219;DHT22;49320;52.512;13.448;2023-05-07T08:08:03;15.10;65.50
63219;DHT22;49320;52.512;13.448;2023-05-07T08:10:30;15.20;65.40
63219;DHT22;49320;52.512;13.448;2023-05-07T08:13:01;15.30;65.40
63219;DHT22;49320;52.512;13.448;2023-05-07T08:15:30;15.30;65.30
63219;DHT22;49320;52.512;13.448;2023-05-07T08:17:58;16.20;65.60
63219;DHT22;49320;52.512;13.448;2023-05-07T08:20:26;15.50;65.00
63219;DHT22;49320;52.512;13.448;2023-05-07T08:22:54;15.50;64.60
63219;DHT22;49320;52.512;13.448;2023-05-07T08:25:21;15.50;63.80
63219;DHT22;49320;52.512;13.448;2023-05-07T08:27:48;15.60;64.00
63219;DHT22;49320;52.512;13.448;2023-05-07T08:30:15;15.60;63.20
63219;DHT22;49320;52.512;13.448;2023-05-07T08:32:42;15.70;63.30
63219;DHT22;49320;52.512;13.448;2023-05-07T08:35:09;15.70;63.50
63219;DHT22;49320;52.512;13.448;2023-05-07T08:40:03;15.90;62.50
63219;DHT22;49320;52.512;13.448;2023-05-07T08:42:37;15.90;63.10
63219;DHT22;49320;52.512;13.448;2023-05-07T08:45:09;16.10;62.90
63219;DHT22;49320;52.512;13.448;2023-05-07T08:47:43;16.20;62.60
63219;DHT22;49320;52.512;13.448;2023-05-07T08:50:13;16.20;61.60
63219;DHT22;49320;52.512;13.448;2023-05-07T08:52:40;16.30;62.20
63219;DHT22;49320;52.512;13.448;2023-05-07T08:55:08;16.50;61.30
63219;DHT22;49320;52.512;13.448;2023-05-07T08:57:35;16.50;61.30
63219;DHT22;49320;52.512;13.448;2023-05-07T09:00:03;16.60;61.30
63219;DHT22;49320;52.512;13.448;2023-05-07T09:02:34;16.70;60.70
63219;DHT22;49320;52.512;13.448;2023-05-07T09:05:04;16.80;60.80
63219;DHT22;49320;52.512;13.448;2023-05-07T09:07:32;16.90;60.30
63219;DHT22;49320;52.512;13.448;2023-05-07T09:10:01;17.00;60.90
63219;DHT22;49320;52.512;13.448;2023-05-07T09:12:32;17.00;61.20
63219;DHT22;49320;52.512;13.448;2023-05-07T09:14:59;17.10;60.00
63219;DHT22;49320;52.512;13.448;2023-05-07T09:17:26;17.20;59.80
63219;DHT22;49320;52.512;13.448;2023-05-07T09:19:53;17.20;59.30
63219;DHT22;49320;52.512;13.448;2023-05-07T09:22:20;17.30;59.20
63219;DHT22;49320;52.512;13.448;2023-05-07T09:24:51;17.30;59.30
63219;DHT22;49320;52.512;13.448;2023-05-07T09:27:18;17.30;59.10
63219;DHT22;49320;52.512;13.448;2023-05-07T09:29:45;17.20;59.00
63219;DHT22;49320;52.512;13.448;2023-05-07T09:32:12;17.40;57.30
63219;DHT22;49320;52.512;13.448;2023-05-07T09:34:39;17.40;58.70
63219;DHT22;49320;52.512;13.448;2023-05-07T09:37:08;17.30;58.90
63219;DHT22;49320;52.512;13.448;2023-05-07T09:39:44;17.40;58.80
63219;DHT22;49320;52.512;13.448;2023-05-07T09:42:13;17.50;58.10
63219;DHT22;49320;52.512;13.448;2023-05-07T09:44:43;17.50;58.80
63219;DHT22;49320;52.512;13.448;2023-05-07T09:47:11;17.50;58.60
63219;DHT22;49320;52.512;13.448;2023-05-07T09:49:47;17.50;58.60
63219;DHT22;49320;52.512;13.448;2023-05-07T09:52:15;17.50;57.30
63219;DHT22;49320;52.512;13.448;2023-05-07T09:54:43;17.50;57.50
63219;DHT22;49320;52.512;13.448;2023-05-07T09:57:14;17.50;57.70
63219;DHT22;49320;52.512;13.448;2023-05-07T09:59:43;17.50;57.90
63219;DHT22;49320;52.512;13.448;2023-05-07T10:02:11;17.40;57.30
63219;DHT22;49320;52.512;13.448;2023-05-07T10:04:39;17.60;57.80
63219;DHT22;49320;52.512;13.448;2023-05-07T10:07:07;17.60;57.30
63219;DHT22;49320;52.512;13.448;2023-05-07T10:09:35;17.70;57.40
63219;DHT22;49320;52.512;13.448;2023-05-07T10:12:06;17.80;57.40
63219;DHT22;49320;52.512;13.448;2023-05-07T10:14:33;17.80;57.40
63219;DHT22;49320;52.512;13.448;2023-05-07T10:17:02;17.80;57.10
63219;DHT22;49320;52.512;13.448;2023-05-07T10:19:29;17.90;57.40
63219;DHT22;49320;52.512;13.448;2023-05-07T10:22:05;18.00;56.40
63219;DHT22;49320;52.512;13.448;2023-05-07T10:24:33;18.00;56.70
63219;DHT22;49320;52.512;13.448;2023-05-07T10:27:04;18.00;56.40
63219;DHT22;49320;52.512;13.448;2023-05-07T10:29:45;18.10;55.80
63219;DHT22;49320;52.512;13.448;2023-05-07T10:35:26;18.20;55.60
63219;DHT22;49320;52.512;13.448;2023-05-07T10:37:56;18.30;56.30
63219;DHT22;49320;52.512;13.448;2023-05-07T10:40:23;18.40;56.30
63219;DHT22;49320;52.512;13.448;2023-05-07T10:42:55;18.40;56.20
63219;DHT22;49320;52.512;13.448;2023-05-07T10:45:23;18.40;55.40
63219;DHT22;49320;52.512;13.448;2023-05-07T10:48:15;18.50;55.20
63219;DHT22;49320;52.512;13.448;2023-05-07T10:51:31;18.50;55.00
63219;DHT22;49320;52.512;13.448;2023-05-07T10:56:39;18.50;54.80
63219;DHT22;49320;52.512;13.448;2023-05-07T11:02:05;18.60;54.80
63219;DHT22;49320;52.512;13.448;2023-05-07T11:04:37;18.60;55.10
63219;DHT22;49320;52.512;13.448;2023-05-07T11:09:54;18.70;54.60
63219;DHT22;49320;52.512;13.448;2023-05-07T11:15:12;18.80;54.00
63219;DHT22;49320;52.512;13.448;2023-05-07T11:17:58;18.80;53.90
63219;DHT22;49320;52.512;13.448;2023-05-07T11:20:55;18.80;53.70
63219;DHT22;49320;52.512;13.448;2023-05-07T11:26:06;18.90;53.80
63219;DHT22;49320;52.512;13.448;2023-05-07T11:28:40;19.00;54.10
63219;DHT22;49320;52.512;13.448;2023-05-07T11:31:09;19.00;54.20
63219;DHT22;49320;52.512;13.448;2023-05-07T11:33:37;19.00;54.30
63219;DHT22;49320;52.512;13.448;2023-05-07T11:36:05;19.10;53.90
63219;DHT22;49320;52.512;13.448;2023-05-07T11:38:36;19.10;54.10
63219;DHT22;49320;52.512;13.448;2023-05-07T11:41:03;19.20;53.00
63219;DHT22;49320;52.512;13.448;2023-05-07T11:43:34;19.20;53.80
63219;DHT22;49320;52.512;13.448;2023-05-07T11:46:11;19.20;53.60
63219;DHT22;49320;52.512;13.448;2023-05-07T11:48:38;19.20;52.90
63219;DHT22;49320;52.512;13.448;2023-05-07T11:51:06;19.20;53.10
63219;DHT22;49320;52.512;13.448;2023-05-07T11:53:43;19.10;53.10
63219;DHT22;49320;52.512;13.448;2023-05-07T11:56:12;19.10;53.10
63219;DHT22;49320;52.512;13.448;2023-05-07T11:58:41;19.00;52.70
63219;DHT22;49320;52.512;13.448;2023-05-07T12:01:11;19.00;53.00
63219;DHT22;49320;52.512;13.448;2023-05-07T12:03:43;19.00;53.10
63219;DHT22;49320;52.512;13.448;2023-05-07T12:06:15;19.00;53.20
63219;DHT22;49320;52.512;13.448;2023-05-07T12:08:44;19.00;53.00
63219;DHT22;49320;52.512;13.448;2023-05-07T12:11:16;19.00;52.80
63219;DHT22;49320;52.512;13.448;2023-05-07T12:13:48;19.00;53.30
63219;DHT22;49320;52.512;13.448;2023-05-07T12:18:44;19.10;52.40
63219;DHT22;49320;52.512;13.448;2023-05-07T12:21:11;19.10;53.10
63219;DHT22;49320;52.512;13.448;2023-05-07T12:23:39;19.20;52.90
63219;DHT22;49320;52.512;13.448;2023-05-07T12:26:06;19.30;53.10
63219;DHT22;49320;52.512;13.448;2023-05-07T12:28:37;19.20;52.60
63219;DHT22;49320;52.512;13.448;2023-05-07T12:31:08;19.30;52.40
63219;DHT22;49320;52.512;13.448;2023-05-07T12:33:35;19.20;52.20
63219;DHT22;49320;52.512;13.448;2023-05-07T12:36:05;18.50;50.50
63219;DHT22;49320;52.512;13.448;2023-05-07T12:38:40;19.10;51.80
63219;DHT22;49320;52.512;13.448;2023-05-07T12:41:09;19.20;51.90
63219;DHT22;49320;52.512;13.448;2023-05-07T12:43:37;19.20;52.00
63219;DHT22;49320;52.512;13.448;2023-05-07T12:46:06;19.10;51.80
63219;DHT22;49320;52.512;13.448;2023-05-07T12:48:37;19.30;51.90
63219;DHT22;49320;52.512;13.448;2023-05-07T12:51:05;19.40;52.20
63219;DHT22;49320;52.512;13.448;2023-05-07T12:53:39;19.50;51.60
63219;DHT22;49320;52.512;13.448;2023-05-07T12:56:07;19.50;51.90
63219;DHT22;49320;52.512;13.448;2023-05-07T12:58:35;19.60;51.20
63219;DHT22;49320;52.512;13.448;2023-05-07T13:01:07;19.60;51.90
63219;DHT22;49320;52.512;13.448;2023-05-07T13:03:37;19.60;51.50
63219;DHT22;49320;52.512;13.448;2023-05-07T13:06:07;19.60;51.60
63219;DHT22;49320;52.512;13.448;2023-05-07T13:08:41;19.60;51.40
63219;DHT22;49320;52.512;13.448;2023-05-07T13:11:12;19.60;50.60
63219;DHT22;49320;52.512;13.448;2023-05-07T13:13:40;19.70;51.10
63219;DHT22;49320;52.512;13.448;2023-05-07T13:16:09;19.70;51.00
63219;DHT22;49320;52.512;13.448;2023-05-07T13:18:39;19.70;50.40
63219;DHT22;49320;52.512;13.448;2023-05-07T13:21:07;19.80;50.30
63219;DHT22;49320;52.512;13.448;2023-05-07T13:23:34;19.90;50.70
63219;DHT22;49320;52.512;13.448;2023-05-07T13:26:01;19.70;50.10
63219;DHT22;49320;52.512;13.448;2023-05-07T13:28:40;20.00;50.20
63219;DHT22;49320;52.512;13.448;2023-05-07T13:31:07;20.00;49.90
63219;DHT22;49320;52.512;13.448;2023-05-07T13:33:33;19.90;50.40
63219;DHT22;49320;52.512;13.448;2023-05-07T13:36:01;20.00;50.50
63219;DHT22;49320;52.512;13.448;2023-05-07T13:38:31;20.00;50.40
63219;DHT22;49320;52.512;13.448;2023-05-07T13:40:58;20.10;50.40
63219;DHT22;49320;52.512;13.448;2023-05-07T13:45:52;20.00;49.40
63219;DHT22;49320;52.512;13.448;2023-05-07T13:48:19;20.00;49.20
63219;DHT22;49320;52.512;13.448;2023-05-07T13:50:46;20.00;48.40
63219;DHT22;49320;52.512;13.448;2023-05-07T13:53:12;20.00;48.30
63219;DHT22;49320;52.512;13.448;2023-05-07T13:55:40;20.00;48.90
63219;DHT22;49320;52.512;13.448;2023-05-07T13:58:06;20.00;49.50
63219;DHT22;49320;52.512;13.448;2023-05-07T14:00:33;20.00;49.70
63219;DHT22;49320;52.512;13.448;2023-05-07T14:03:01;20.00;49.90
63219;DHT22;49320;52.512;13.448;2023-05-07T14:05:28;20.10;49.80
63219;DHT22;49320;52.512;13.448;2023-05-07T14:07:57;20.00;49.00
63219;DHT22;49320;52.512;13.448;2023-05-07T14:10:24;20.00;49.50
63219;DHT22;49320;52.512;13.448;2023-05-07T14:12:51;20.00;49.50
63219;DHT22;49320;52.512;13.448;2023-05-07T14:15:19;19.90;49.20
63219;DHT22;49320;52.512;13.448;2023-05-07T14:17:46;19.80;49.40
63219;DHT22;49320;52.512;13.448;2023-05-07T14:20:13;19.80;49.30
63219;DHT22;49320;52.512;13.448;2023-05-07T14:22:40;19.70;49.40
63219;DHT22;49320;52.512;13.448;2023-05-07T14:25:07;19.70;49.50
63219;DHT22;49320;52.512;13.448;2023-05-07T14:27:36;19.60;49.20
63219;DHT22;49320;52.512;13.448;2023-05-07T14:30:03;19.50;49.40
63219;DHT22;49320;52.512;13.448;2023-05-07T14:32:30;19.50;48.50
63219;DHT22;49320;52.512;13.448;2023-05-07T14:34:58;19.40;49.60
63219;DHT22;49320;52.512;13.448;2023-05-07T14:37:25;19.40;49.60
63219;DHT22;49320;52.512;13.448;2023-05-07T14:39:52;19.30;49.60
63219;DHT22;49320;52.512;13.448;2023-05-07T14:42:18;19.30;49.30
63219;DHT22;49320;52.512;13.448;2023-05-07T14:44:45;19.30;49.00
63219;DHT22;49320;52.512;13.448;2023-05-07T14:47:14;19.30;49.20
63219;DHT22;49320;52.512;13.448;2023-05-07T14:52:11;19.30;48.50
63219;DHT22;49320;52.512;13.448;2023-05-07T14:54:38;19.30;49.40
63219;DHT22;49320;52.512;13.448;2023-05-07T14:57:06;19.40;49.60
63219;DHT22;49320;52.512;13.448;2023-05-07T14:59:34;19.50;49.60
63219;DHT22;49320;52.512;13.448;2023-05-07T15:02:01;19.60;49.70
63219;DHT22;49320;52.512;13.448;2023-05-07T15:04:32;19.70;49.70
63219;DHT22;49320;52.512;13.448;2023-05-07T15:09:26;19.90;49.00
63219;DHT22;49320;52.512;13.448;2023-05-07T15:11:53;20.10;49.20
63219;DHT22;49320;52.512;13.448;2023-05-07T15:14:20;20.20;49.00
63219;DHT22;49320;52.512;13.448;2023-05-07T15:16:48;20.30;48.50
63219;DHT22;49320;52.512;13.448;2023-05-07T15:19:15;20.30;48.30
63219;DHT22;49320;52.512;13.448;2023-05-07T15:21:43;20.30;48.60
63219;DHT22;49320;52.512;13.448;2023-05-07T15:24:10;20.30;48.40
63219;DHT22;49320;52.512;13.448;2023-05-07T15:26:37;20.30;48.40
63219;DHT22;49320;52.512;13.448;2023-05-07T15:29:03;20.30;48.20
63219;DHT22;49320;52.512;13.448;2023-05-07T15:31:36;20.20;48.40
63219;DHT22;49320;52.512;13.448;2023-05-07T15:34:04;20.20;48.50
63219;DHT22;49320;52.512;13.448;2023-05-07T15:36:31;20.20;48.10
63219;DHT22;49320;52.512;13.448;2023-05-07T15:38:57;20.20;48.50
63219;DHT22;49320;52.512;13.448;2023-05-07T15:41:24;20.20;48.20
63219;DHT22;49320;52.512;13.448;2023-05-07T15:43:52;20.20;48.10
63219;DHT22;49320;52.512;13.448;2023-05-07T15:46:21;20.10;47.40
63219;DHT22;49320;52.512;13.448;2023-05-07T15:48:51;20.10;47.60
63219;DHT22;49320;52.512;13.448;2023-05-07T15:51:19;20.00;47.20
63219;DHT22;49320;52.512;13.448;2023-05-07T15:53:46;20.00;48.00
63219;DHT22;49320;52.512;13.448;2023-05-07T15:56:13;19.90;47.10
63219;DHT22;49320;52.512;13.448;2023-05-07T15:58:40;19.80;47.70